createdAt,value
2022-11-03T00:00:37.690Z,101064.31
2022-11-03T00:03:28.086Z,101062.81
2022-11-03T00:06:17.509Z,101067.00
2022-11-03T00:09:09.244Z,101063.47
2022-11-03T00:11:58.515Z,101072.38
2022-11-03T00:14:48.270Z,101080.97
2022-11-03T00:17:37.130Z,101077.75
2022-11-03T00:20:26.211Z,101085.47
2022-11-03T00:23:15.223Z,101091.22
2022-11-03T00:26:17.732Z,101091.88
2022-11-03T00:29:12.287Z,101098.78
2022-11-03T00:32:01.578Z,101100.28
2022-11-03T00:34:50.691Z,101108.72
2022-11-03T00:37:40.115Z,101107.72
2022-11-03T00:40:31.013Z,101102.63
2022-11-03T00:43:20.255Z,101105.94
2022-11-03T00:46:10.223Z,101100.22
2022-11-03T00:48:59.262Z,101105.41
2022-11-03T00:51:48.359Z,101109.97
2022-11-03T00:54:44.800Z,101112.63
2022-11-03T00:57:36.888Z,101122.34
2022-11-03T01:00:26.565Z,101126.22
2022-11-03T01:03:16.710Z,101121.31
2022-11-03T01:06:31.946Z,101134.63
2022-11-03T01:09:46.712Z,101127.50
2022-11-03T01:12:37.047Z,101132.25
2022-11-03T01:15:26.938Z,101130.22
2022-11-03T01:18:16.316Z,101132.72
2022-11-03T01:21:05.813Z,101135.25
2022-11-03T01:23:54.714Z,101136.03
2022-11-03T01:26:44.045Z,101132.31
2022-11-03T01:29:33.290Z,101132.63
2022-11-03T01:32:22.944Z,101133.50
2022-11-03T01:35:11.843Z,101133.28
2022-11-03T01:38:01.175Z,101136.00
2022-11-03T01:40:50.465Z,101145.75
2022-11-03T01:43:41.262Z,101145.41
2022-11-03T01:46:31.268Z,101133.25
2022-11-03T01:49:35.854Z,101135.94
2022-11-03T01:52:29.900Z,101141.16
2022-11-03T01:55:25.974Z,101132.81
2022-11-03T01:58:36.090Z,101127.06
2022-11-03T02:01:25.393Z,101119.63
2022-11-03T02:04:21.213Z,101122.28
2022-11-03T02:07:28.711Z,101115.56
2022-11-03T02:10:19.294Z,101120.28
2022-11-03T02:13:18.430Z,101119.28
2022-11-03T02:16:08.808Z,101116.72
2022-11-03T02:18:57.866Z,101118.56
2022-11-03T02:21:47.167Z,101116.00
2022-11-03T02:25:16.270Z,101112.78
2022-11-03T02:28:08.419Z,101120.34
2022-11-03T02:31:16.027Z,101117.94
2022-11-03T02:34:07.305Z,101111.69
2022-11-03T02:37:10.210Z,101117.09
2022-11-03T02:40:06.694Z,101112.72
2022-11-03T02:42:55.726Z,101105.44
2022-11-03T02:45:46.380Z,101108.81
2022-11-03T02:48:35.520Z,101110.31
2022-11-03T02:51:25.914Z,101113.84
2022-11-03T02:54:27.276Z,101104.56
2022-11-03T02:57:26.945Z,101094.41
2022-11-03T03:00:18.493Z,101095.19
2022-11-03T03:03:15.912Z,101092.50
2022-11-03T03:06:12.773Z,101083.50
2022-11-03T03:09:08.018Z,101085.53
2022-11-03T03:11:58.585Z,101086.47
2022-11-03T03:14:48.754Z,101087.41
2022-11-03T03:17:44.219Z,101078.81
2022-11-03T03:20:46.856Z,101073.91
2022-11-03T03:23:49.551Z,101064.69
2022-11-03T03:26:52.549Z,101052.94
2022-11-03T03:29:47.988Z,101059.00
2022-11-03T03:32:41.034Z,101058.63
2022-11-03T03:35:32.421Z,101046.78
2022-11-03T03:38:26.247Z,101043.06
2022-11-03T03:41:23.714Z,101048.56
2022-11-03T03:44:13.879Z,101038.19
2022-11-03T03:47:09.168Z,101043.53
2022-11-03T03:49:58.030Z,101027.78
2022-11-03T03:52:47.573Z,101009.13
2022-11-03T03:55:42.764Z,101007.59
2022-11-03T03:58:31.644Z,101010.88
2022-11-03T04:01:20.848Z,100998.06
2022-11-03T04:04:10.488Z,100997.03
2022-11-03T04:07:17.874Z,100997.16
2022-11-03T04:10:09.265Z,100993.44
2022-11-03T04:13:16.971Z,100991.75
2022-11-03T04:16:24.236Z,100985.06
2022-11-03T04:19:33.078Z,100986.16
2022-11-03T04:22:23.272Z,100979.25
2022-11-03T04:25:12.917Z,100981.97
2022-11-03T04:28:04.802Z,100973.31
2022-11-03T04:30:59.404Z,100975.75
2022-11-03T04:33:49.157Z,100982.97
2022-11-03T04:36:37.826Z,100967.88
2022-11-03T04:39:26.873Z,100979.13
2022-11-03T04:42:20.582Z,100966.44
2022-11-03T04:45:32.333Z,100955.97
2022-11-03T04:48:24.476Z,100948.63
2022-11-03T04:51:18.995Z,100949.25
2022-11-03T04:54:22.012Z,100939.75
2022-11-03T04:57:15.105Z,100938.06
2022-11-03T05:00:07.181Z,100933.31
2022-11-03T05:02:56.827Z,100932.31
2022-11-03T05:05:46.985Z,100924.03
2022-11-03T05:08:35.889Z,100925.72
2022-11-03T05:11:33.012Z,100929.00
2022-11-03T05:14:27.915Z,100919.41
2022-11-03T05:17:30.178Z,100917.56
2022-11-03T05:20:46.919Z,100903.38
2022-11-03T05:23:43.791Z,100906.88
2022-11-03T05:26:36.769Z,100907.00
2022-11-03T05:29:38.157Z,100904.19
2022-11-03T05:32:30.339Z,100894.25
2022-11-03T05:35:23.229Z,100883.34
2022-11-03T05:38:14.363Z,100877.56
2022-11-03T05:41:03.486Z,100882.53
2022-11-03T05:43:59.542Z,100877.50
2022-11-03T05:46:49.300Z,100879.22
2022-11-03T05:49:38.191Z,100871.50
2022-11-03T05:52:28.756Z,100870.88
2022-11-03T05:55:27.250Z,100868.69
2022-11-03T05:58:40.538Z,100855.25
2022-11-03T06:01:39.188Z,100861.09
2022-11-03T06:04:41.467Z,100852.69
2022-11-03T06:07:33.730Z,100853.22
2022-11-03T06:10:28.803Z,100844.81
2022-11-03T06:13:41.511Z,100834.50
2022-11-03T06:16:41.879Z,100852.44
2022-11-03T06:19:39.853Z,100842.47
2022-11-03T06:22:34.036Z,100842.88
2022-11-03T06:25:26.116Z,100836.66
2022-11-03T06:28:37.813Z,100838.56
2022-11-03T06:31:30.229Z,100839.19
2022-11-03T06:34:58.361Z,100837.69
2022-11-03T06:37:49.042Z,100840.78
2022-11-03T06:40:39.377Z,100832.81
2022-11-03T06:43:42.554Z,100831.56
2022-11-03T06:46:32.549Z,100829.88
2022-11-03T06:49:34.182Z,100818.19
2022-11-03T06:52:40.754Z,100826.13
2022-11-03T06:55:31.989Z,100837.34
2022-11-03T06:58:32.428Z,100824.47
2022-11-03T07:01:29.492Z,100833.84
2022-11-03T07:04:25.252Z,100831.16
2022-11-03T07:07:27.694Z,100847.38
2022-11-03T07:10:17.705Z,100847.38
2022-11-03T07:13:16.127Z,100836.56
2022-11-03T07:16:06.143Z,100836.16
2022-11-03T07:19:01.703Z,100830.13
2022-11-03T07:21:56.507Z,100826.38
2022-11-03T07:24:50.068Z,100827.84
2022-11-03T07:27:40.663Z,100831.38
2022-11-03T07:30:32.916Z,100832.81
2022-11-03T07:33:27.381Z,100830.34
2022-11-03T07:36:21.924Z,100839.13
2022-11-03T07:39:17.468Z,100833.31
2022-11-03T07:42:24.132Z,100837.31
2022-11-03T07:45:35.374Z,100835.06
2022-11-03T07:48:24.960Z,100840.88
2022-11-03T07:51:35.082Z,100840.88
2022-11-03T07:54:27.056Z,100840.47
2022-11-03T07:57:28.017Z,100845.88
2022-11-03T08:00:22.824Z,100843.81
2022-11-03T08:03:24.009Z,100854.22
2022-11-03T08:06:14.676Z,100848.81
2022-11-03T08:09:07.050Z,100852.56
2022-11-03T08:11:57.262Z,100861.31
2022-11-03T08:14:46.647Z,100875.72
2022-11-03T08:17:35.564Z,100882.97
2022-11-03T08:20:24.806Z,100884.00
2022-11-03T08:23:25.246Z,100881.06
2022-11-03T08:26:15.385Z,100882.88
2022-11-03T08:29:04.308Z,100884.72
2022-11-03T08:31:53.361Z,100895.94
2022-11-03T08:34:42.459Z,100911.66
2022-11-03T08:37:32.280Z,100908.91
2022-11-03T08:40:21.298Z,100913.88
2022-11-03T08:43:11.401Z,100915.44
2022-11-03T08:46:09.754Z,100921.38
2022-11-03T08:49:04.940Z,100927.81
2022-11-03T08:51:54.515Z,100931.50
2022-11-03T08:54:44.404Z,100933.56
2022-11-03T08:57:36.666Z,100929.53
2022-11-03T09:00:28.184Z,100936.78
2022-11-03T09:03:18.024Z,100942.50
2022-11-03T09:06:07.713Z,100932.91
2022-11-03T09:12:05.715Z,100942.16
2022-11-03T09:14:55.304Z,100943.19
2022-11-03T09:17:45.668Z,100941.50
2022-11-03T09:20:35.474Z,100944.94
2022-11-03T09:23:24.586Z,100937.69
2022-11-03T09:26:13.207Z,100941.88
2022-11-03T09:29:03.513Z,100941.59
2022-11-03T09:31:52.548Z,100946.34
2022-11-03T09:34:41.568Z,100955.47
2022-11-03T09:37:30.871Z,100966.50
2022-11-03T09:40:22.722Z,100973.94
2022-11-03T09:43:12.899Z,100978.75
2022-11-03T09:46:01.978Z,100977.94
2022-11-03T09:48:51.178Z,100985.69
2022-11-03T09:51:40.137Z,100998.69
2022-11-03T09:54:32.470Z,101002.81
2022-11-03T09:57:21.615Z,101004.84
2022-11-03T10:00:19.725Z,101008.41
2022-11-03T10:03:13.170Z,101017.63
2022-11-03T10:06:03.433Z,101018.47
2022-11-03T10:08:52.675Z,101027.59
2022-11-03T10:11:41.305Z,101029.19
2022-11-03T10:14:30.886Z,101039.44
2022-11-03T10:17:23.027Z,101038.31
2022-11-03T10:20:17.516Z,101044.66
2022-11-03T10:23:32.370Z,101041.97
2022-11-03T10:26:22.306Z,101038.22
2022-11-03T10:29:22.107Z,101037.38
2022-11-03T10:32:31.108Z,101058.63
2022-11-03T10:35:36.833Z,101056.84
2022-11-03T10:38:32.729Z,101057.22
2022-11-03T10:41:25.506Z,101060.94
2022-11-03T10:44:16.848Z,101063.34
2022-11-03T10:47:10.173Z,101068.09
2022-11-03T10:49:59.244Z,101080.91
2022-11-03T10:52:48.711Z,101075.50
2022-11-03T10:58:28.014Z,101086.38
2022-11-03T11:01:18.051Z,101091.13
2022-11-03T11:04:07.487Z,101092.50
2022-11-03T11:06:56.257Z,101109.44
2022-11-03T11:09:46.160Z,101104.41
2022-11-03T11:12:35.932Z,101109.44
2022-11-03T11:16:01.173Z,101103.19
2022-11-03T11:19:10.977Z,101100.84
2022-11-03T11:22:02.234Z,101112.50
2022-11-03T11:24:51.433Z,101113.50
2022-11-03T11:27:43.299Z,101112.28
2022-11-03T11:30:33.246Z,101118.91
2022-11-03T11:33:26.764Z,101131.19
2022-11-03T11:36:25.577Z,101131.38
2022-11-03T11:39:15.043Z,101138.16
2022-11-03T11:42:17.904Z,101159.13
2022-11-03T11:45:07.307Z,101147.28
2022-11-03T11:47:56.385Z,101137.84
2022-11-03T11:50:46.234Z,101141.94
2022-11-03T11:53:43.011Z,101145.28
2022-11-03T11:56:32.211Z,101155.22
2022-11-03T11:59:48.679Z,101147.31
2022-11-03T12:02:37.950Z,101154.75
2022-11-03T12:05:31.340Z,101172.09
2022-11-03T12:08:21.995Z,101166.69
2022-11-03T12:11:14.483Z,101170.59
2022-11-03T12:14:06.260Z,101168.22
2022-11-03T12:16:56.790Z,101169.53
2022-11-03T12:19:47.007Z,101172.22
2022-11-03T12:22:43.984Z,101169.53
2022-11-03T12:25:38.100Z,101152.97
2022-11-03T12:28:35.246Z,101147.94
2022-11-03T12:31:24.480Z,101147.94
2022-11-03T12:34:13.303Z,101145.91
2022-11-03T12:37:02.575Z,101143.19
2022-11-03T12:39:52.071Z,101141.88
2022-11-03T12:42:40.707Z,101143.56
2022-11-03T12:45:30.668Z,101143.56
2022-11-03T12:48:21.524Z,101144.94
2022-11-03T12:51:21.371Z,101145.09
2022-11-03T12:54:10.211Z,101151.91
2022-11-03T12:56:59.270Z,101161.19
2022-11-03T12:59:48.221Z,101170.28
2022-11-03T13:02:37.422Z,101177.22
2022-11-03T13:05:26.904Z,101176.34
2022-11-03T13:11:30.095Z,101168.91
2022-11-03T13:14:20.970Z,101178.50
2022-11-03T13:17:10.285Z,101178.69
2022-11-03T13:20:00.200Z,101181.38
2022-11-03T13:22:49.507Z,101197.94
2022-11-03T13:25:39.979Z,101199.97
2022-11-03T13:28:29.016Z,101204.53
2022-11-03T13:31:21.122Z,101211.63
2022-11-03T13:34:10.545Z,101202.66
2022-11-03T13:36:59.933Z,101203.69
2022-11-03T13:39:49.236Z,101200.03
2022-11-03T13:42:38.297Z,101195.28
2022-11-03T13:45:27.758Z,101193.59
2022-11-03T13:49:20.055Z,101192.94
2022-11-03T13:51:29.149Z,101188.88
2022-11-03T14:00:37.289Z,101184.19
2022-11-03T14:06:38.004Z,101179.50
2022-11-03T14:09:27.483Z,101177.81
2022-11-03T14:12:35.696Z,101181.53
2022-11-03T14:15:25.139Z,101186.94
2022-11-03T14:18:14.245Z,101180.72
2022-11-03T14:21:03.381Z,101174.47
2022-11-03T14:23:52.936Z,101185.59
2022-11-03T14:26:43.228Z,101164.69
2022-11-03T14:29:33.250Z,101171.09
2022-11-03T14:32:22.532Z,101164.03
2022-11-03T14:35:12.174Z,101170.78
2022-11-03T14:38:01.336Z,101170.13
2022-11-03T14:41:09.935Z,101168.28
2022-11-03T14:43:59.121Z,101168.63
2022-11-03T14:46:49.033Z,101174.19
2022-11-03T14:49:38.687Z,101179.56
2022-11-03T14:52:27.969Z,101183.28
2022-11-03T14:55:17.421Z,101169.13
2022-11-03T14:58:06.741Z,101168.31
2022-11-03T15:00:56.303Z,101168.31
2022-11-03T15:03:45.881Z,101164.94
2022-11-03T15:06:35.549Z,101162.06
2022-11-03T15:09:24.886Z,101158.69
2022-11-03T15:12:14.598Z,101164.28
2022-11-03T15:15:03.507Z,101158.03
2022-11-03T15:17:52.684Z,101155.69
2022-11-03T15:20:41.544Z,101159.75
2022-11-03T15:26:40.454Z,101154.00
2022-11-03T15:29:29.652Z,101146.94
2022-11-03T15:32:18.625Z,101157.41
2022-11-03T15:35:08.987Z,101154.69
2022-11-03T15:38:02.036Z,101163.16
2022-11-03T15:40:50.483Z,101160.47
2022-11-03T15:43:39.905Z,101153.41
2022-11-03T15:46:29.453Z,101150.53
2022-11-03T15:49:20.529Z,101152.03
2022-11-03T15:52:11.031Z,101153.75
2022-11-03T15:54:59.954Z,101150.19
2022-11-03T15:57:50.592Z,101154.06
2022-11-03T16:00:39.392Z,101152.72
2022-11-03T16:03:28.518Z,101146.31
2022-11-03T16:06:18.503Z,101147.50
2022-11-03T16:09:07.483Z,101135.88
2022-11-03T16:11:56.994Z,101134.03
2022-11-03T16:14:45.938Z,101132.69
2022-11-03T16:17:34.745Z,101128.50
2022-11-03T16:20:27.076Z,101127.50
2022-11-03T16:23:15.926Z,101121.09
2022-11-03T16:26:06.672Z,101115.19
2022-11-03T16:28:55.876Z,101113.03
2022-11-03T16:31:44.590Z,101102.56
2022-11-03T16:34:33.575Z,101104.75
2022-11-03T16:37:28.542Z,101110.16
2022-11-03T16:40:19.912Z,101102.44
2022-11-03T16:43:09.645Z,101096.22
2022-11-03T16:45:59.861Z,101099.91
2022-11-03T16:48:48.837Z,101095.25
2022-11-03T16:51:38.519Z,101093.56
2022-11-03T16:54:28.691Z,101089.19
2022-11-03T16:57:18.163Z,101090.22
2022-11-03T17:00:10.557Z,101082.13
2022-11-03T17:03:00.710Z,101087.19
2022-11-03T17:06:09.808Z,101089.53
2022-11-03T17:08:59.144Z,101089.22
2022-11-03T17:11:48.134Z,101089.88
2022-11-03T17:14:37.469Z,101073.72
2022-11-03T17:17:26.493Z,101073.59
2022-11-03T17:20:15.752Z,101071.03
2022-11-03T17:23:07.034Z,101075.75
2022-11-03T17:25:56.932Z,101073.06
2022-11-03T17:28:45.687Z,101066.69
2022-11-03T17:31:34.628Z,101056.91
2022-11-03T17:34:25.948Z,101059.47
2022-11-03T17:37:15.136Z,101053.75
2022-11-03T17:40:12.534Z,101046.47
2022-11-03T17:43:02.094Z,101049.16
2022-11-03T17:45:51.548Z,101059.25
2022-11-03T17:48:43.980Z,101071.34
2022-11-03T17:51:34.471Z,101066.31
2022-11-03T17:54:24.659Z,101074.03
2022-11-03T17:57:24.119Z,101067.31
2022-11-03T18:00:18.728Z,101074.72
2022-11-03T18:03:11.973Z,101072.88
2022-11-03T18:06:01.706Z,101080.28
2022-11-03T18:08:51.085Z,101072.38
2022-11-03T18:12:00.695Z,101078.09
2022-11-03T18:14:49.658Z,101078.91
2022-11-03T18:17:38.800Z,101074.41
2022-11-03T18:20:31.821Z,101068.50
2022-11-03T18:23:31.988Z,101074.88
2022-11-03T18:26:26.694Z,101077.56
2022-11-03T18:29:16.635Z,101071.38
2022-11-03T18:32:06.027Z,101070.50
2022-11-03T18:34:55.278Z,101074.38
2022-11-03T18:37:46.187Z,101072.84
2022-11-03T18:40:35.130Z,101080.59
2022-11-03T18:43:25.794Z,101078.75
2022-11-03T18:46:17.291Z,101079.78
2022-11-03T18:49:06.284Z,101073.53
2022-11-03T18:52:04.608Z,101072.38
2022-11-03T18:54:54.760Z,101075.88
2022-11-03T18:57:43.780Z,101072.19
2022-11-03T19:00:32.726Z,101063.44
2022-11-03T19:03:24.154Z,101063.28
2022-11-03T19:06:13.820Z,101058.25
2022-11-03T19:09:02.835Z,101047.63
2022-11-03T19:11:52.338Z,101051.50
2022-11-03T19:14:42.737Z,101049.16
2022-11-03T19:17:35.667Z,101044.94
2022-11-03T19:20:26.293Z,101052.84
2022-11-03T19:23:17.105Z,101052.19
2022-11-03T19:26:09.148Z,101047.13
2022-11-03T19:29:03.547Z,101048.81
2022-11-03T19:31:55.361Z,101045.13
2022-11-03T19:34:44.683Z,101052.31
2022-11-03T19:37:35.913Z,101058.56
2022-11-03T19:40:25.238Z,101053.19
2022-11-03T19:43:14.640Z,101055.69
2022-11-03T19:46:04.937Z,101057.88
2022-11-03T19:48:54.022Z,101063.75
2022-11-03T19:51:43.106Z,101064.59
2022-11-03T19:54:32.484Z,101048.81
2022-11-03T19:57:21.966Z,101055.34
2022-11-03T20:00:21.066Z,101053.19
2022-11-03T20:03:09.966Z,101039.72
2022-11-03T20:05:59.595Z,101043.22
2022-11-03T20:08:48.681Z,101033.66
2022-11-03T20:12:02.589Z,101038.31
2022-11-03T20:14:51.526Z,101037.97
2022-11-03T20:17:42.405Z,101033.59
2022-11-03T20:20:36.767Z,101041.00
2022-11-03T20:23:36.647Z,101034.28
2022-11-03T20:26:27.461Z,101039.81
2022-11-03T20:29:17.831Z,101033.59
2022-11-03T20:32:08.318Z,101036.63
2022-11-03T20:34:57.529Z,101038.28
2022-11-03T20:37:54.574Z,101040.63
2022-11-03T20:40:43.907Z,101036.09
2022-11-03T20:43:39.246Z,101034.59
2022-11-03T20:46:34.057Z,101039.63
2022-11-03T20:49:22.978Z,101037.94
2022-11-03T20:52:15.228Z,101046.16
2022-11-03T20:55:04.576Z,101047.00
2022-11-03T20:57:55.355Z,101041.28
2022-11-03T21:00:45.421Z,101044.50
2022-11-03T21:03:58.283Z,101049.34
2022-11-03T21:06:43.962Z,101055.41
2022-11-03T21:09:34.005Z,101070.53
2022-11-03T21:12:22.705Z,101063.78
2022-11-03T21:16:18.189Z,101071.16
2022-11-03T21:19:20.271Z,101070.81
2022-11-03T21:22:51.287Z,101070.81
2022-11-03T21:25:25.518Z,101073.50
2022-11-03T21:28:15.744Z,101079.56
2022-11-03T21:31:04.689Z,101077.19
2022-11-03T21:33:53.855Z,101086.56
2022-11-03T21:36:42.920Z,101080.38
2022-11-03T21:39:32.347Z,101088.56
2022-11-03T21:42:40.649Z,101103.00
2022-11-03T21:45:30.221Z,101102.19
2022-11-03T21:48:37.249Z,101100.31
2022-11-03T21:51:27.114Z,101112.75
2022-11-03T21:54:16.986Z,101120.81
2022-11-03T21:57:07.712Z,101127.19
2022-11-03T22:00:00.109Z,101131.88
2022-11-03T22:02:49.558Z,101130.19
2022-11-03T22:05:39.034Z,101135.75
2022-11-03T22:08:28.910Z,101133.88
2022-11-03T22:11:23.896Z,101130.19
2022-11-03T22:14:14.318Z,101141.25
2022-11-03T22:17:03.562Z,101144.63
2022-11-03T22:20:11.131Z,101144.25
2022-11-03T22:23:21.434Z,101150.31
2022-11-03T22:26:36.245Z,101148.63
2022-11-03T22:29:43.663Z,101152.13
2022-11-03T22:32:34.449Z,101161.00
2022-11-03T22:35:42.163Z,101164.00
2022-11-03T22:38:50.473Z,101160.69
2022-11-03T22:42:00.686Z,101165.38
2022-11-03T22:45:12.413Z,101159.38
2022-11-03T22:48:03.756Z,101162.94
2022-11-03T22:51:02.716Z,101167.94
2022-11-03T22:54:09.844Z,101168.63
2022-11-03T22:57:04.760Z,101171.06
2022-11-03T22:59:53.839Z,101167.06
2022-11-03T23:02:44.040Z,101171.50
2022-11-03T23:05:36.094Z,101182.25
2022-11-03T23:08:25.669Z,101193.66
2022-11-03T23:11:23.137Z,101186.94
2022-11-03T23:14:13.031Z,101193.31
2022-11-03T23:17:01.710Z,101190.78
2022-11-03T23:20:09.124Z,101190.25
2022-11-03T23:23:01.085Z,101192.31
2022-11-03T23:25:49.890Z,101191.28
2022-11-03T23:28:42.131Z,101194.03
2022-11-03T23:31:32.367Z,101203.41
2022-11-03T23:34:21.959Z,101205.09
2022-11-03T23:37:11.094Z,101211.84
2022-11-03T23:39:59.974Z,101213.84
2022-11-03T23:42:49.742Z,101217.44
2022-11-03T23:45:59.832Z,101216.59
2022-11-03T23:48:48.643Z,101216.22
2022-11-03T23:51:39.403Z,101224.25
2022-11-03T23:54:33.231Z,101231.28
2022-11-03T23:57:40.288Z,101232.69
